Bethlehem, GA

12:00 AM EST on March 04, 2015 (GMT -0500)
Jefferson | Change Station
CLOSE
Current Station
Airport
Location: Jefferson,
Elevation: 951 ft
Nearby Weather Stations
Active Advisory: Dense Fog Advisory

Elev 951 ft 34.18 °N, 83.56 °W | Updated 25 minutes ago

Fog
Fog
45 °F
Feels Like 45 °F
N
0
Wind Variable Wind from North

Today
High -- | Low -- °F
--% Chance of Precip.
Yesterday
High -- | Low -- °F
Precip. -- in
7:00 AM 6:33 PM
Waxing Gibbous, 98% visible
Pressure 30.11 in
Visibility 0.5 miles
Clouds Overcast 100 ft
Dew Point 45 °F
Humidity 100%
Rainfall 0.00 in
Snow Depth Not available.
UV 0 out of 12
Pollen .90 out of 12
Air Quality Not available.
Flu Activity Not available.
METAR K19A 040435Z AUTO 00000KT 1/2SM FG OVC001 07/07 A3011 RMK AO2

More Conditions Fewer Conditions

Pressure 30.11 in
Visibility 0.5 miles
Clouds Overcast 100 ft
Dew Point 45 °F
Humidity 100%
Rainfall 0.00 in
Snow Depth Not available.
UV 0 out of 12
Pollen .90 out of 12
Air Quality Not available.
Flu Activity Not available.
METAR K19A 040435Z AUTO 00000KT 1/2SM FG OVC001 07/07 A3011 RMK AO2

More Conditions Fewer Conditions

10-Day Weather Forecast

Almanac

Astronomy

Mar. 04, 2015 Rise Set
Actual Time
Civil Twilight
Nautical Twilight
Astronomical Twilight
Moon
Length of Visible Light
Length of Day
Tomorrow will be .
, % of the Moon is Illuminated

Today's Extremes

State Highs State Lows

Community

WunderPhotos

Upload Photos

1,802,386 photos uploaded!

WunderBlogs® & News

Nearby

Air Quality

  Air Quality AQ Index Pollutant
Not available.

Snow Depth

Station Depth Elevation

Earthquake Activity

City Distance Mag. Time & Date
Minimum magnitude displayed is 2.5.

Coastal Water Temperatures

Place Temperature

Nearby Weather Stations

Dense Fog Advisory
Statement as of 8:49 PM EST on March 03, 2015

... Dense fog advisory in effect until 10 am EST Wednesday...

The National Weather Service in Peachtree City has issued a dense
fog advisory... which is in effect until 10 am EST Wednesday.

* Locations... areas across north Georgia mainly along and north
of a Newnan to McDonough to Greensboro line.

* Visibilities... one quarter of a mile or less

* timing... through 10 am

* impacts... dense fog will create low visibilities during the
evening and morning commutes.

Precautionary/preparedness actions...

A dense fog advisory means visibilities will frequently be
reduced to less than one quarter mile. If
driving... slow down... use your headlights... and leave plenty of
distance ahead of you.